Pagina principale
METAR-TAF:

METAR-TAF

Aeroporti :

Aeroporto di Roma-Urbe

Roma, Italia

latitudine: 41-57N, longitudine: 012-30E, altezza: 18 m

Osservazione

Il bollettino è stato emesso 48 minuti fa, alle 17:50 UTC
Vento 10 kt da sud-ovest
Temperature 16°C
Umidità 77%
Pressione 1007 hPa
Visibilità 10 km o più
Nubi sparse ad un'altezza di 2500 ft
Nubi sparse ad un'altezza di 3500 ft

METAR: LIRU 191750Z 22010KT 9999 SCT025 SCT035 16/12 Q1007

Ora: 20:38 (18:38 UTC)

Previsione

Il bollettino è stato emesso 4 ore e 38 minuti fa, alle 14:00 UTC
Previsione valida dal 19 alle 15 UTC al 19 alle 24 UTC
Vento 10 kt da ovest/sud-ovest
Visibilità: 8000 m
Nubi sparse ad un'altezza di 2000 ft
Temporaneamente
dal 19 alle 15 UTC al 19 alle 17 UTC
Visibilità: 4000 m
temporale, pioggia
Evoluzione graduale
dal 19 alle 17 UTC al 19 alle 19 UTC
Vento 4 kt da direzioni variabili

TAF: LIRU 191400Z 1915/1924 25010KT 8000 SCT020 TEMPO 1915/1917 4000 TSRA BECMG 1917/1919 VRB04KT

Osservazioni e previsioni meteorologiche di più di 4000 aeroporti (messaggi METAR e TAF).

Le stazioni disponibili sono rappresentate dai dischi gialli e rossi sulla carta.

Puntare il mouse per vedere il nome della stazione.

Clicca sopra per visualizzare le osservazioni e previsioni meteorologiche.

Per cambiare la mappa : fare clic sui pulsanti verdi con una croce nera per ingrandire, il pulsante verde con un trattino per diminuire, o sulla freccia verde per le mappe adiacenti.


METAR-TAF: